Time;durP1;ratioP1;P1;durP2;ratioP2;P2;SDS_P1;SDS_P2;PMS_P1;PMS_P2;Temp;Humidity;BMP_temperature;BMP_pressure;BME280_temperature;BME280_humidity;BME280_pressure;Samples;Min_cycle;Max_cycle;Signal;HPM_P1;HPM_P2
2022/07/05 00:00:54;;;;;;;8.57;3.50;;;15.90;99.90;;;;;;5070647;28;20497;-68
2022/07/05 00:03:20;;;;;;;6.65;3.30;;;15.40;99.90;;;;;;5089228;28;20366;-68
2022/07/05 00:05:46;;;;;;;7.10;3.40;;;15.40;99.90;;;;;;5088228;28;20048;-67
2022/07/05 00:08:12;;;;;;;6.35;2.72;;;15.40;99.90;;;;;;5081495;28;20178;-68
2022/07/05 00:10:37;;;;;;;9.93;3.60;;;15.40;99.90;;;;;;5069234;28;20045;-68
2022/07/05 00:13:04;;;;;;;7.60;3.10;;;15.30;99.90;;;;;;5082296;28;20116;-69
2022/07/05 00:15:30;;;;;;;6.35;3.40;;;15.30;99.90;;;;;;5070558;28;20100;-69
2022/07/05 00:17:55;;;;;;;6.70;3.22;;;15.30;99.90;;;;;;5084735;28;20439;-69
2022/07/05 00:20:21;;;;;;;6.78;3.30;;;15.30;99.90;;;;;;5051635;28;20043;-69
2022/07/05 00:22:47;;;;;;;8.07;3.38;;;15.30;99.90;;;;;;5079679;28;20067;-70
2022/07/05 00:25:13;;;;;;;7.18;3.10;;;15.20;99.90;;;;;;5065051;28;20056;-69
2022/07/05 00:27:39;;;;;;;11.70;3.20;;;15.20;99.90;;;;;;5084007;28;20038;-69
2022/07/05 00:30:06;;;;;;;8.77;3.35;;;15.20;99.90;;;;;;5075047;28;20667;-68
2022/07/05 00:32:31;;;;;;;5.38;3.20;;;15.20;99.90;;;;;;5080908;28;20049;-69
2022/07/05 00:34:57;;;;;;;8.20;3.20;;;15.20;99.90;;;;;;5067938;28;20044;-69
2022/07/05 00:37:23;;;;;;;14.30;3.22;;;15.20;99.90;;;;;;5067743;28;20032;-69
2022/07/05 00:39:48;;;;;;;5.18;3.42;;;14.90;99.90;;;;;;5068115;28;20078;-68
2022/07/05 00:42:14;;;;;;;6.22;3.10;;;15.10;99.90;;;;;;5067359;28;20088;-69
2022/07/05 00:44:41;;;;;;;5.40;3.45;;;15.10;99.90;;;;;;5068122;28;20049;-70
2022/07/05 00:47:09;;;;;;;6.55;3.28;;;15.00;99.90;;;;;;5067632;28;20424;-69
2022/07/05 00:49:35;;;;;;;7.75;3.33;;;14.90;99.90;;;;;;5068446;28;20070;-69
2022/07/05 00:52:01;;;;;;;6.40;3.50;;;15.10;99.90;;;;;;5087799;28;20035;-69
2022/07/05 00:54:28;;;;;;;5.13;2.88;;;14.80;99.90;;;;;;5087478;28;20044;-70
2022/07/05 00:56:54;;;;;;;7.07;3.53;;;14.80;99.90;;;;;;5072879;28;20036;-69
2022/07/05 00:59:21;;;;;;;6.75;3.47;;;14.70;99.90;;;;;;5088512;28;20047;-69
2022/07/05 01:01:47;;;;;;;4.70;3.40;;;14.70;99.90;;;;;;5085751;28;20048;-69
2022/07/05 01:04:13;;;;;;;6.97;3.45;;;14.60;99.90;;;;;;5053263;28;20056;-69
2022/07/05 01:06:42;;;;;;;8.32;3.50;;;14.60;99.90;;;;;;5057785;28;20037;-70
2022/07/05 01:09:12;;;;;;;5.60;3.10;;;14.60;99.90;;;;;;5080978;28;20040;-69
2022/07/05 01:11:47;;;;;;;5.72;3.30;;;14.70;99.90;;;;;;5090271;28;20412;-69
2022/07/05 01:14:16;;;;;;;5.47;3.28;;;14.50;99.90;;;;;;5083092;28;20123;-69
2022/07/05 01:16:42;;;;;;;6.25;3.65;;;14.50;99.90;;;;;;5068074;28;20052;-69
2022/07/05 01:19:11;;;;;;;5.78;3.65;;;14.50;99.90;;;;;;5078016;28;20047;-69
2022/07/05 01:21:39;;;;;;;6.03;3.55;;;14.90;99.90;;;;;;5069056;28;20040;-69
2022/07/05 01:24:06;;;;;;;7.53;3.78;;;14.50;99.90;;;;;;5067693;28;20382;-69
2022/07/05 01:26:32;;;;;;;6.82;3.90;;;14.40;99.90;;;;;;5082254;28;20232;-69
2022/07/05 01:28:58;;;;;;;6.95;3.78;;;14.40;99.90;;;;;;5069250;28;20388;-69
2022/07/05 01:31:24;;;;;;;6.75;3.95;;;14.40;99.90;;;;;;5066791;28;20053;-70
2022/07/05 01:33:50;;;;;;;6.60;4.22;;;14.40;99.90;;;;;;5084625;28;20036;-69
2022/07/05 01:36:16;;;;;;;6.70;3.92;;;14.40;99.90;;;;;;5058877;28;20123;-69
2022/07/05 01:38:42;;;;;;;7.40;4.10;;;14.40;99.90;;;;;;5067219;28;20163;-69
2022/07/05 01:41:09;;;;;;;5.65;4.30;;;14.40;99.90;;;;;;5049162;28;20488;-69
2022/07/05 01:43:35;;;;;;;5.75;3.90;;;14.20;99.90;;;;;;5067188;28;20086;-69
2022/07/05 01:46:02;;;;;;;6.68;4.50;;;14.20;99.90;;;;;;5067477;28;20086;-69
2022/07/05 01:48:28;;;;;;;7.38;4.80;;;14.10;99.90;;;;;;5067700;28;20524;-69
2022/07/05 01:51:01;;;;;;;7.70;4.65;;;14.50;99.90;;;;;;5073921;28;20051;-69
2022/07/05 01:53:31;;;;;;;7.40;4.63;;;14.10;99.90;;;;;;5074562;28;20330;-70
2022/07/05 01:56:02;;;;;;;9.27;5.13;;;14.10;99.90;;;;;;5067134;28;20103;-70
2022/07/05 01:58:29;;;;;;;7.03;4.47;;;14.10;99.90;;;;;;5075838;28;20067;-69
2022/07/05 02:00:56;;;;;;;8.60;4.60;;;14.20;99.90;;;;;;5087247;28;20093;-70
2022/07/05 02:03:23;;;;;;;8.38;4.63;;;14.40;99.90;;;;;;5075239;28;20401;-69
2022/07/05 02:05:49;;;;;;;8.38;4.60;;;14.30;99.90;;;;;;5082346;28;20040;-69
2022/07/05 02:08:16;;;;;;;6.82;4.30;;;13.90;99.90;;;;;;5080001;28;20890;-69
2022/07/05 02:10:42;;;;;;;7.70;4.82;;;13.90;99.90;;;;;;5068946;28;20048;-69
2022/07/05 02:13:08;;;;;;;6.93;4.53;;;13.90;99.90;;;;;;5057073;28;20075;-69
2022/07/05 02:15:36;;;;;;;7.53;4.80;;;13.80;99.90;;;;;;5067862;28;20120;-70
2022/07/05 02:18:03;;;;;;;8.45;5.63;;;13.80;99.90;;;;;;5067192;28;20090;-69
2022/07/05 02:20:30;;;;;;;6.70;4.72;;;13.80;99.90;;;;;;5071429;28;20036;-69
2022/07/05 02:22:56;;;;;;;5.93;4.70;;;13.80;99.90;;;;;;5067979;28;20043;-69
2022/07/05 02:25:22;;;;;;;8.00;4.75;;;13.80;99.90;;;;;;5087653;28;20449;-70
2022/07/05 02:27:48;;;;;;;7.80;4.82;;;13.70;99.90;;;;;;5085714;28;20039;-69
2022/07/05 02:30:14;;;;;;;6.50;4.90;;;13.70;99.90;;;;;;5055496;28;20612;-69
2022/07/05 02:32:41;;;;;;;6.70;4.85;;;13.80;99.90;;;;;;5078900;28;20123;-69
2022/07/05 02:35:09;;;;;;;6.93;4.65;;;13.70;99.90;;;;;;5090566;28;20040;-69
2022/07/05 02:37:35;;;;;;;7.13;5.03;;;13.60;99.90;;;;;;5090461;28;20047;-69
2022/07/05 02:40:00;;;;;;;6.75;5.00;;;13.60;99.90;;;;;;5089194;28;20071;-69
2022/07/05 02:42:26;;;;;;;8.30;5.43;;;13.60;99.90;;;;;;5067477;28;20076;-69
2022/07/05 02:44:52;;;;;;;7.25;5.72;;;13.90;99.90;;;;;;5070895;28;20037;-69
2022/07/05 02:47:17;;;;;;;8.43;4.70;;;14.30;99.90;;;;;;5070008;28;20540;-69
2022/07/05 02:49:43;;;;;;;7.63;4.45;;;13.50;99.90;;;;;;5085901;28;20087;-69
2022/07/05 02:52:09;;;;;;;9.02;5.03;;;13.50;99.90;;;;;;5089679;28;20119;-69
2022/07/05 02:54:34;;;;;;;7.32;4.93;;;13.50;99.90;;;;;;5089274;28;20123;-69
2022/07/05 02:57:00;;;;;;;8.35;5.05;;;13.70;99.90;;;;;;5084918;28;20078;-69
2022/07/05 02:59:26;;;;;;;7.07;5.15;;;13.50;99.90;;;;;;5070636;28;20029;-69
2022/07/05 03:01:51;;;;;;;8.45;5.25;;;13.80;99.90;;;;;;5070147;28;20044;-69
2022/07/05 03:04:17;;;;;;;7.57;5.07;;;13.50;99.90;;;;;;5067064;28;20481;-69
2022/07/05 03:06:43;;;;;;;8.35;5.10;;;13.40;99.90;;;;;;5077634;28;20044;-69
2022/07/05 03:09:09;;;;;;;11.20;5.88;;;13.50;99.90;;;;;;5088787;28;20052;-69
2022/07/05 03:11:34;;;;;;;7.55;5.25;;;14.20;99.90;;;;;;5090171;28;20384;-69
2022/07/05 03:14:00;;;;;;;8.52;5.53;;;14.00;99.90;;;;;;5089631;28;20043;-69
2022/07/05 03:16:26;;;;;;;8.07;5.38;;;13.40;99.90;;;;;;5084100;28;20470;-69
2022/07/05 03:18:51;;;;;;;6.97;4.90;;;13.40;99.90;;;;;;5070709;28;20037;-69
2022/07/05 03:21:17;;;;;;;8.77;5.30;;;13.50;99.90;;;;;;5050926;28;20504;-69
2022/07/05 03:23:43;;;;;;;7.20;5.35;;;13.90;99.90;;;;;;5061473;28;20086;-69
2022/07/05 03:26:08;;;;;;;8.02;5.60;;;13.50;99.90;;;;;;5070703;28;20084;-69
2022/07/05 03:28:34;;;;;;;7.55;5.95;;;13.50;99.90;;;;;;5089688;28;20032;-69
2022/07/05 03:31:00;;;;;;;7.38;5.10;;;13.40;99.90;;;;;;5088735;28;20084;-69
2022/07/05 03:33:26;;;;;;;7.65;5.88;;;13.40;99.90;;;;;;5090026;28;20086;-69
2022/07/05 03:35:52;;;;;;;8.07;5.95;;;13.50;99.90;;;;;;5069184;28;20416;-69
2022/07/05 03:38:18;;;;;;;7.78;5.65;;;13.60;99.90;;;;;;5079082;28;20134;-69
2022/07/05 03:40:44;;;;;;;9.88;6.10;;;14.10;99.90;;;;;;5070396;28;20037;-69
2022/07/05 03:43:10;;;;;;;10.50;5.68;;;13.40;99.90;;;;;;5088828;28;20155;-69
2022/07/05 03:45:35;;;;;;;9.23;6.55;;;13.40;99.90;;;;;;5089397;28;20042;-69
2022/07/05 03:48:01;;;;;;;10.10;6.45;;;13.40;99.90;;;;;;5078527;28;20048;-70
2022/07/05 03:50:28;;;;;;;7.05;5.60;;;13.40;99.90;;;;;;5082926;28;20055;-69
2022/07/05 03:52:53;;;;;;;6.93;5.55;;;13.40;99.90;;;;;;5077267;28;20493;-69
2022/07/05 03:55:20;;;;;;;7.88;5.57;;;13.50;99.90;;;;;;5051581;28;20401;-70
2022/07/05 03:57:47;;;;;;;6.85;5.60;;;13.40;99.90;;;;;;5051129;28;20474;-69
2022/07/05 04:00:13;;;;;;;9.68;5.70;;;14.00;99.90;;;;;;5085497;28;20051;-69
2022/07/05 04:02:39;;;;;;;9.25;5.60;;;13.40;99.90;;;;;;5088655;28;20138;-69
2022/07/05 04:05:05;;;;;;;6.97;5.53;;;13.40;99.90;;;;;;5086921;28;20139;-69
2022/07/05 04:07:31;;;;;;;9.63;5.32;;;13.40;99.90;;;;;;5086743;28;20043;-69
2022/07/05 04:09:57;;;;;;;7.95;6.15;;;13.50;99.90;;;;;;5087984;28;20111;-70
2022/07/05 04:12:22;;;;;;;7.43;5.40;;;13.60;99.90;;;;;;5087976;28;20500;-69
2022/07/05 04:14:48;;;;;;;7.90;5.60;;;13.60;99.90;;;;;;5064355;28;20040;-69
2022/07/05 04:17:14;;;;;;;8.23;5.40;;;13.90;99.90;;;;;;5069308;28;20094;-69
2022/07/05 04:19:39;;;;;;;9.65;5.35;;;13.90;99.90;;;;;;5083338;28;20513;-69
2022/07/05 04:22:05;;;;;;;6.43;4.88;;;13.60;99.90;;;;;;5067686;28;20219;-69
2022/07/05 04:24:31;;;;;;;10.85;5.95;;;13.70;99.90;;;;;;5078861;28;20123;-68
2022/07/05 04:26:56;;;;;;;6.22;5.15;;;13.70;99.90;;;;;;5087801;28;20052;-69
2022/07/05 04:29:22;;;;;;;6.72;5.15;;;14.30;99.90;;;;;;5087039;28;20119;-69
2022/07/05 04:31:48;;;;;;;9.00;5.18;;;14.10;99.90;;;;;;5078139;28;20517;-68
2022/07/05 04:34:13;;;;;;;7.47;5.38;;;13.90;99.90;;;;;;5082264;28;20043;-69
2022/07/05 04:36:40;;;;;;;9.80;5.40;;;13.90;99.90;;;;;;5088179;28;20479;-69
2022/07/05 04:39:07;;;;;;;8.43;5.28;;;14.30;99.90;;;;;;5069515;28;20040;-69
2022/07/05 04:41:33;;;;;;;8.88;5.60;;;13.90;99.90;;;;;;5067700;28;20079;-68
2022/07/05 04:43:59;;;;;;;7.15;5.00;;;13.90;99.90;;;;;;5068706;28;20048;-69
2022/07/05 04:46:25;;;;;;;8.25;5.18;;;13.90;99.90;;;;;;5067097;28;20470;-69
2022/07/05 04:48:50;;;;;;;7.75;5.18;;;14.00;99.90;;;;;;5068721;28;20113;-68
2022/07/05 04:51:16;;;;;;;7.57;5.20;;;14.10;99.90;;;;;;5067768;28;20036;-69
2022/07/05 04:53:42;;;;;;;7.45;4.82;;;14.20;99.90;;;;;;5066019;28;20064;-71
2022/07/05 04:56:08;;;;;;;6.72;4.60;;;14.10;99.90;;;;;;5067574;28;20117;-71
2022/07/05 04:58:34;;;;;;;11.13;4.80;;;14.20;99.90;;;;;;5065538;28;20395;-69
2022/07/05 05:01:00;;;;;;;8.00;4.78;;;14.30;99.90;;;;;;5074165;28;20036;-69
2022/07/05 05:03:25;;;;;;;7.38;5.30;;;14.30;99.90;;;;;;5062662;28;20474;-69
2022/07/05 05:05:51;;;;;;;7.18;4.47;;;14.30;99.90;;;;;;5058923;28;20105;-69
2022/07/05 05:08:17;;;;;;;8.23;5.13;;;14.30;99.90;;;;;;5066015;28;20072;-68
2022/07/05 05:10:43;;;;;;;7.43;4.88;;;15.00;99.90;;;;;;5082403;28;20044;-69
2022/07/05 05:13:08;;;;;;;10.55;4.82;;;14.40;99.90;;;;;;5077213;28;20044;-69
2022/07/05 05:15:34;;;;;;;10.75;4.90;;;14.40;99.90;;;;;;5067432;28;20039;-71
2022/07/05 05:18:00;;;;;;;7.65;4.97;;;14.60;99.90;;;;;;5078199;28;20040;-68
2022/07/05 05:20:26;;;;;;;8.30;4.60;;;14.60;99.90;;;;;;5087782;28;20036;-70
2022/07/05 05:22:51;;;;;;;8.07;5.03;;;14.60;99.90;;;;;;5087650;28;20046;-69
2022/07/05 05:25:17;;;;;;;7.03;4.30;;;14.60;99.90;;;;;;5074074;28;20040;-69
2022/07/05 05:27:48;;;;;;;5.82;4.53;;;14.60;99.90;;;;;;5067526;28;20040;-69
2022/07/05 05:30:14;;;;;;;10.02;4.50;;;15.10;99.90;;;;;;5066731;28;20068;-69
2022/07/05 05:32:40;;;;;;;7.43;4.53;;;14.70;99.90;;;;;;5067343;28;20511;-69
2022/07/05 05:35:07;;;;;;;6.50;4.18;;;14.70;99.90;;;;;;5063650;28;20044;-69
2022/07/05 05:37:53;;;;;;;7.38;4.40;;;14.80;99.90;;;;;;5057988;28;20388;-70
2022/07/05 05:40:24;;;;;;;8.00;3.90;;;14.90;99.90;;;;;;5073836;28;20404;-70
2022/07/05 05:42:51;;;;;;;8.38;3.90;;;14.90;99.90;;;;;;5066404;28;20044;-70
2022/07/05 05:45:17;;;;;;;8.02;4.03;;;14.90;99.90;;;;;;5067510;28;20486;-70
2022/07/05 05:47:51;;;;;;;9.85;4.03;;;15.00;99.90;;;;;;5067113;28;20079;-70
2022/07/05 05:50:43;;;;;;;8.73;3.90;;;15.00;99.90;;;;;;5066931;28;20390;-70
2022/07/05 05:53:08;;;;;;;7.07;4.00;;;15.00;99.90;;;;;;5073952;28;20805;-70
2022/07/05 05:55:34;;;;;;;8.35;4.10;;;15.10;99.90;;;;;;5076318;28;20090;-70
2022/07/05 05:58:18;;;;;;;8.18;4.25;;;15.10;99.90;;;;;;5064438;28;20105;-71
2022/07/05 06:00:47;;;;;;;7.30;3.97;;;15.20;99.90;;;;;;5067975;28;20051;-70
2022/07/05 06:03:14;;;;;;;6.82;3.97;;;15.20;99.90;;;;;;5087139;28;20036;-71
2022/07/05 06:05:40;;;;;;;5.35;3.60;;;15.30;99.90;;;;;;5071175;28;20206;-70
2022/07/05 06:08:05;;;;;;;6.20;3.38;;;15.40;99.90;;;;;;5071705;28;20557;-72
2022/07/05 06:10:33;;;;;;;5.45;3.20;;;15.50;99.90;;;;;;5070903;28;20082;-70
2022/07/05 06:13:01;;;;;;;8.23;3.40;;;15.50;99.90;;;;;;5088671;28;20123;-71
2022/07/05 06:15:28;;;;;;;6.05;3.35;;;15.60;99.90;;;;;;5071178;28;20123;-68
2022/07/05 06:17:53;;;;;;;6.47;2.92;;;15.60;99.90;;;;;;5071478;28;20048;-69
2022/07/05 06:20:22;;;;;;;6.22;2.80;;;16.10;99.90;;;;;;5085493;28;20028;-69
2022/07/05 06:22:48;;;;;;;5.72;3.03;;;15.80;99.90;;;;;;5063228;28;20044;-70
2022/07/05 06:25:14;;;;;;;4.93;2.53;;;16.00;99.90;;;;;;5076837;28;20044;-69
2022/07/05 06:27:48;;;;;;;8.13;2.72;;;15.90;99.90;;;;;;5090606;28;20050;-68
2022/07/05 06:30:17;;;;;;;5.20;2.38;;;16.00;99.90;;;;;;5090957;28;20056;-68
2022/07/05 06:32:45;;;;;;;9.82;3.40;;;16.00;99.90;;;;;;5078176;28;20123;-69
2022/07/05 06:35:12;;;;;;;7.68;2.50;;;16.10;99.90;;;;;;5070717;28;20127;-69
2022/07/05 06:37:44;;;;;;;5.60;2.60;;;16.10;99.90;;;;;;5069459;28;20090;-69
2022/07/05 06:40:12;;;;;;;7.45;2.30;;;16.20;99.90;;;;;;5069994;28;20098;-69
2022/07/05 06:42:38;;;;;;;7.25;2.00;;;16.30;99.90;;;;;;5069277;28;20054;-69
2022/07/05 06:45:08;;;;;;;5.35;1.98;;;16.30;99.90;;;;;;5052522;28;20131;-69
2022/07/05 06:47:34;;;;;;;7.55;2.30;;;16.40;99.90;;;;;;5069270;28;20037;-68
2022/07/05 06:49:59;;;;;;;7.72;2.42;;;16.50;99.90;;;;;;5070400;28;20124;-68
2022/07/05 06:52:25;;;;;;;5.18;2.08;;;16.60;99.90;;;;;;5069413;28;20036;-69
2022/07/05 06:54:51;;;;;;;6.22;1.80;;;16.70;99.90;;;;;;5071484;28;20512;-68
2022/07/05 06:57:23;;;;;;;6.05;2.00;;;16.70;99.90;;;;;;5061989;28;20099;-68
2022/07/05 06:59:49;;;;;;;8.07;1.95;;;16.70;99.90;;;;;;5069092;28;20045;-68
2022/07/05 07:02:15;;;;;;;8.88;2.00;;;16.80;99.90;;;;;;5069794;28;20048;-71
2022/07/05 07:04:41;;;;;;;8.82;1.70;;;16.80;99.90;;;;;;5069635;28;20520;-68
2022/07/05 07:09:17;;;;;;;5.30;1.50;;;16.90;99.90;;;;;;5054111;28;20063;-68
2022/07/05 07:09:59;;;;;;;7.22;1.80;;;17.00;99.90;;;;;;5069343;28;20127;-69
2022/07/05 07:12:25;;;;;;;6.47;1.58;;;17.00;99.90;;;;;;5068462;28;20040;-68
2022/07/05 07:14:51;;;;;;;5.57;1.52;;;17.10;99.90;;;;;;5069104;28;20058;-69
2022/07/05 07:17:16;;;;;;;7.85;1.95;;;17.20;99.90;;;;;;5050704;28;20048;-68
2022/07/05 07:19:42;;;;;;;4.93;1.50;;;17.30;99.90;;;;;;5051972;28;20342;-68
2022/07/05 07:22:08;;;;;;;5.93;1.60;;;17.40;99.90;;;;;;5050335;28;20134;-68
2022/07/05 07:24:33;;;;;;;8.77;1.60;;;17.50;99.90;;;;;;5077422;28;20040;-70
2022/07/05 07:27:06;;;;;;;5.70;1.67;;;17.60;99.90;;;;;;5072783;28;20044;-68
2022/07/05 07:29:36;;;;;;;4.95;1.50;;;17.80;99.90;;;;;;5050383;28;20048;-69
2022/07/05 07:32:03;;;;;;;7.57;1.88;;;18.00;99.90;;;;;;5069407;28;20044;-68
2022/07/05 07:34:29;;;;;;;3.17;1.20;;;18.20;99.90;;;;;;5068909;28;20078;-68
2022/07/05 07:36:56;;;;;;;3.95;1.35;;;18.40;99.90;;;;;;5048101;28;20360;-68
2022/07/05 07:39:22;;;;;;;6.03;1.48;;;18.50;99.90;;;;;;5057215;28;20036;-69
2022/07/05 07:41:48;;;;;;;9.07;1.73;;;18.50;99.90;;;;;;5079634;28;20123;-69
2022/07/05 07:44:13;;;;;;;3.53;1.25;;;18.50;99.90;;;;;;5066725;28;20033;-69
2022/07/05 07:46:39;;;;;;;5.43;1.60;;;18.50;99.90;;;;;;5068381;28;20392;-69
2022/07/05 07:49:06;;;;;;;5.45;1.60;;;18.60;99.90;;;;;;5068191;28;20049;-67
2022/07/05 07:51:32;;;;;;;3.63;1.50;;;18.50;99.90;;;;;;5068849;28;20037;-69
2022/07/05 07:53:58;;;;;;;6.50;1.70;;;18.60;99.90;;;;;;5070999;28;20044;-70
2022/07/05 07:56:24;;;;;;;4.78;1.77;;;18.80;99.90;;;;;;5067574;28;20042;-70
2022/07/05 07:58:49;;;;;;;4.72;1.33;;;18.90;99.90;;;;;;5068817;28;20040;-70
2022/07/05 08:01:15;;;;;;;3.38;1.05;;;19.00;99.90;;;;;;5083580;28;20048;-70
2022/07/05 08:03:41;;;;;;;5.57;1.95;;;18.90;99.90;;;;;;5067085;28;20055;-69
2022/07/05 08:06:10;;;;;;;4.22;1.45;;;19.00;99.90;;;;;;5086078;28;20461;-69
2022/07/05 08:08:37;;;;;;;5.22;1.70;;;18.90;99.90;;;;;;5087947;28;20122;-69
2022/07/05 08:11:03;;;;;;;7.65;1.45;;;18.90;99.90;;;;;;5087371;28;20050;-70
2022/07/05 08:13:29;;;;;;;5.63;1.50;;;18.90;99.90;;;;;;5085774;28;20111;-69
2022/07/05 08:15:55;;;;;;;4.18;1.50;;;18.80;99.90;;;;;;5048391;28;20033;-68
2022/07/05 08:23:49;;;;;;;4.00;1.40;;;19.00;99.90;;;;;;5088484;28;20052;-69
2022/07/05 08:26:15;;;;;;;4.93;1.20;;;19.00;99.90;;;;;;5087150;28;20052;-69
2022/07/05 08:28:40;;;;;;;4.97;1.50;;;19.00;99.90;;;;;;5070406;28;20546;-69
2022/07/05 08:31:06;;;;;;;5.45;1.40;;;19.50;99.90;;;;;;5085505;28;20059;-69
2022/07/05 08:33:32;;;;;;;4.97;1.50;;;19.20;99.90;;;;;;5087738;28;20140;-69
2022/07/05 08:35:57;;;;;;;6.95;1.30;;;19.20;99.90;;;;;;5057912;28;20350;-69
2022/07/05 08:38:23;;;;;;;5.40;1.20;;;19.30;99.90;;;;;;5081640;28;20485;-69
2022/07/05 08:40:51;;;;;;;5.15;1.33;;;19.30;99.90;;;;;;5067790;28;20117;-69
2022/07/05 08:43:19;;;;;;;5.78;1.50;;;19.30;99.90;;;;;;5067357;28;20056;-69
2022/07/05 08:45:47;;;;;;;4.63;1.38;;;19.30;99.90;;;;;;5073776;28;20040;-70
2022/07/05 08:48:16;;;;;;;4.38;1.35;;;19.30;99.90;;;;;;5086278;28;20598;-71
2022/07/05 08:50:43;;;;;;;3.42;1.30;;;19.40;99.90;;;;;;5084483;28;20102;-73
2022/07/05 08:53:09;;;;;;;5.53;1.40;;;19.80;99.90;;;;;;5082439;28;20411;-72
2022/07/05 08:55:36;;;;;;;3.58;1.30;;;19.60;99.90;;;;;;5075491;28;20053;-71
2022/07/05 08:58:02;;;;;;;6.15;1.50;;;19.70;99.90;;;;;;5064099;28;20086;-71
2022/07/05 09:00:28;;;;;;;5.97;1.40;;;19.70;99.90;;;;;;5044925;28;20127;-74
2022/07/05 09:02:55;;;;;;;5.43;1.27;;;19.70;99.90;;;;;;5061348;28;20044;-71
2022/07/05 09:05:22;;;;;;;4.15;1.55;;;19.90;99.90;;;;;;5053363;28;20118;-71
2022/07/05 09:07:57;;;;;;;3.67;1.40;;;19.90;99.90;;;;;;5065079;28;20054;-70
2022/07/05 09:10:26;;;;;;;7.60;1.50;;;20.20;99.90;;;;;;5084520;28;20108;-71
2022/07/05 09:12:51;;;;;;;3.92;1.40;;;20.20;99.90;;;;;;5081847;28;20041;-69
2022/07/05 09:15:17;;;;;;;4.38;1.50;;;20.20;99.90;;;;;;5078186;28;21019;-69
2022/07/05 09:17:44;;;;;;;4.30;1.10;;;20.20;99.90;;;;;;5067026;28;20123;-69
2022/07/05 09:20:13;;;;;;;4.43;1.52;;;20.20;99.90;;;;;;5048903;28;20056;-70
2022/07/05 09:22:46;;;;;;;3.83;1.40;;;20.10;99.90;;;;;;5069025;28;20039;-69
2022/07/05 09:25:17;;;;;;;3.80;1.33;;;20.20;99.90;;;;;;5072654;28;20080;-69
2022/07/05 09:27:53;;;;;;;4.38;1.33;;;20.30;99.90;;;;;;5065490;28;20120;-69
2022/07/05 09:30:31;;;;;;;3.58;1.20;;;20.30;99.90;;;;;;5048853;28;20060;-69
2022/07/05 09:33:04;;;;;;;4.85;1.38;;;20.60;99.90;;;;;;5066700;28;20045;-69
2022/07/05 09:35:31;;;;;;;3.95;1.40;;;20.80;99.90;;;;;;5065639;28;20080;-69
2022/07/05 09:37:56;;;;;;;3.75;1.30;;;20.60;99.90;;;;;;5073500;28;20048;-69
2022/07/05 09:40:22;;;;;;;6.18;1.20;;;20.50;99.90;;;;;;5085829;28;20055;-70
2022/07/05 09:42:48;;;;;;;4.70;1.33;;;20.40;99.90;;;;;;5071745;28;20101;-69
2022/07/05 09:45:24;;;;;;;3.63;1.40;;;20.40;99.90;;;;;;5081763;28;20405;-70
2022/07/05 09:47:50;;;;;;;3.78;1.33;;;20.40;99.90;;;;;;5067021;28;20048;-69
2022/07/05 09:50:33;;;;;;;6.95;1.42;;;20.10;99.90;;;;;;5066227;28;20338;-70
2022/07/05 09:52:59;;;;;;;5.20;1.60;;;20.00;99.90;;;;;;5065373;28;20131;-70
2022/07/05 09:55:25;;;;;;;3.72;1.52;;;20.10;99.90;;;;;;5066446;28;20147;-70
2022/07/05 09:57:50;;;;;;;4.18;1.48;;;20.40;99.90;;;;;;5065758;28;20047;-70
2022/07/05 10:00:19;;;;;;;4.75;1.40;;;20.60;99.90;;;;;;5034891;28;20131;-70
2022/07/05 10:02:53;;;;;;;5.15;1.42;;;20.90;99.90;;;;;;5072081;28;20048;-70
2022/07/05 10:05:24;;;;;;;4.45;1.40;;;21.30;99.90;;;;;;5067423;28;20048;-69
2022/07/05 10:07:50;;;;;;;4.93;1.42;;;21.70;99.90;;;;;;5087175;28;20040;-80
2022/07/05 10:10:21;;;;;;;4.80;1.50;;;22.40;99.40;;;;;;5086158;28;20067;-79
2022/07/05 10:12:48;;;;;;;4.40;1.42;;;23.20;98.40;;;;;;5086908;28;20043;-80
2022/07/05 10:15:18;;;;;;;5.13;1.33;;;23.20;97.40;;;;;;5037302;28;20661;-80
2022/07/05 10:17:58;;;;;;;4.28;1.27;;;23.20;97.20;;;;;;5030648;28;20143;-81
2022/07/05 10:20:37;;;;;;;3.28;1.27;;;24.20;97.10;;;;;;5048117;28;20171;-82
2022/07/05 10:23:06;;;;;;;5.05;1.52;;;24.90;94.20;;;;;;5061772;28;20049;-82
2022/07/05 10:25:34;;;;;;;8.15;1.73;;;24.50;94.80;;;;;;5059831;28;20082;-81
2022/07/05 10:28:01;;;;;;;5.68;1.40;;;23.70;95.80;;;;;;5066014;28;20040;-81
2022/07/05 10:30:27;;;;;;;4.90;1.42;;;23.30;96.60;;;;;;5047060;28;20525;-82
2022/07/05 10:32:54;;;;;;;4.70;1.60;;;23.20;96.70;;;;;;5047286;28;20071;-80
2022/07/05 10:35:21;;;;;;;4.60;1.60;;;23.60;95.90;;;;;;5051490;28;20400;-80
2022/07/05 10:37:48;;;;;;;5.85;2.20;;;24.40;95.00;;;;;;5089370;28;20123;-81
2022/07/05 10:40:15;;;;;;;12.60;3.90;;;25.30;94.10;;;;;;5083624;28;20044;-80
2022/07/05 10:42:45;;;;;;;6.53;2.08;;;26.20;94.00;;;;;;5062359;28;20053;-73
2022/07/05 10:45:26;;;;;;;5.43;1.80;;;28.20;92.70;;;;;;5062963;28;20048;-73
2022/07/05 10:48:20;;;;;;;8.45;2.40;;;30.90;89.30;;;;;;5063994;28;20052;-74
2022/07/05 10:50:52;;;;;;;5.50;1.58;;;33.20;84.40;;;;;;5070068;28;20182;-73
2022/07/05 10:53:21;;;;;;;4.53;1.40;;;34.00;79.80;;;;;;5084935;28;20059;-74
2022/07/05 10:55:48;;;;;;;3.88;1.50;;;35.50;78.30;;;;;;5086939;28;20063;-73
2022/07/05 10:58:20;;;;;;;5.95;1.60;;;34.60;75.30;;;;;;5086845;28;20070;-73
2022/07/05 11:00:47;;;;;;;4.18;1.52;;;32.80;74.10;;;;;;5086150;28;20383;-73
2022/07/05 11:03:32;;;;;;;3.45;1.40;;;31.30;76.40;;;;;;5060560;28;20095;-73
2022/07/05 11:05:58;;;;;;;;;;;31.30;75.70;;;;;;5062527;28;20500;-74
2022/07/05 11:08:24;;;;;;;3.63;1.20;;;31.00;75.00;;;;;;5053189;28;19920;-73
2022/07/05 11:11:11;;;;;;;6.00;1.25;;;30.20;75.90;;;;;;5079732;28;20048;-74
2022/07/05 11:13:43;;;;;;;3.47;1.20;;;29.30;75.40;;;;;;5085908;28;20051;-73
2022/07/05 11:16:36;;;;;;;3.45;1.15;;;28.30;78.70;;;;;;5068276;28;20655;-73
2022/07/05 11:19:17;;;;;;;4.97;1.33;;;27.30;80.60;;;;;;5086009;28;20083;-73
2022/07/05 11:22:03;;;;;;;4.45;1.38;;;26.20;82.10;;;;;;5070292;28;20051;-83
2022/07/05 11:24:31;;;;;;;6.15;1.40;;;25.50;82.40;;;;;;5083586;28;20147;-82
2022/07/05 11:27:01;;;;;;;6.07;1.73;;;25.10;83.50;;;;;;5097047;28;20066;-83
2022/07/05 11:29:43;;;;;;;5.35;1.50;;;25.00;84.00;;;;;;5101291;28;20050;-84
2022/07/05 11:32:29;;;;;;;5.22;1.58;;;25.50;84.10;;;;;;5101480;28;20504;-84
2022/07/05 11:35:10;;;;;;;5.07;1.38;;;25.60;84.00;;;;;;5089661;28;20445;-83
2022/07/05 11:37:57;;;;;;;4.47;1.40;;;26.00;84.60;;;;;;5073021;28;20587;-75
2022/07/05 11:40:31;;;;;;;5.53;1.45;;;26.00;84.50;;;;;;5085908;28;20163;-75
2022/07/05 11:42:58;;;;;;;4.00;1.33;;;26.00;85.60;;;;;;5084556;28;20384;-74
2022/07/05 11:45:24;;;;;;;6.28;1.50;;;25.60;85.30;;;;;;5068207;28;20135;-75
2022/07/05 11:47:55;;;;;;;6.05;1.60;;;24.90;84.90;;;;;;5065778;28;20040;-74
2022/07/05 11:50:26;;;;;;;3.53;1.10;;;24.40;86.10;;;;;;5085648;28;20426;-74
2022/07/05 11:52:52;;;;;;;5.97;1.30;;;23.90;86.10;;;;;;5076963;28;20033;-74
2022/07/05 11:55:18;;;;;;;4.22;1.38;;;23.50;86.70;;;;;;5081061;28;20055;-74
2022/07/05 11:57:51;;;;;;;4.68;1.20;;;23.20;87.30;;;;;;5065241;28;20067;-74
2022/07/05 12:00:35;;;;;;;2.75;1.10;;;22.90;87.80;;;;;;5047511;28;20104;-74
2022/07/05 12:03:13;;;;;;;5.68;1.48;;;22.60;88.80;;;;;;5089192;28;20132;-74
2022/07/05 12:05:40;;;;;;;5.85;1.60;;;22.40;91.80;;;;;;5086970;28;20059;-74
2022/07/05 12:08:06;;;;;;;7.60;1.60;;;22.30;94.20;;;;;;5073232;28;20527;-82
2022/07/05 12:13:15;;;;;;;8.38;1.75;;;22.50;95.90;;;;;;5070305;28;20080;-82
2022/07/05 12:15:41;;;;;;;4.88;1.50;;;22.30;97.40;;;;;;5066861;28;20462;-82
2022/07/05 12:18:11;;;;;;;8.30;1.60;;;22.00;98.30;;;;;;5088862;28;20035;-82
2022/07/05 12:20:39;;;;;;;5.13;1.60;;;21.80;99.70;;;;;;5071594;28;20126;-82
2022/07/05 12:23:06;;;;;;;5.30;1.63;;;21.50;99.90;;;;;;5074632;28;20437;-83
2022/07/05 12:25:33;;;;;;;6.90;1.75;;;21.30;99.90;;;;;;5082299;28;20346;-83
2022/07/05 12:28:01;;;;;;;5.30;1.65;;;21.30;99.90;;;;;;5088510;28;20093;-81
2022/07/05 12:30:30;;;;;;;4.15;1.40;;;21.40;99.90;;;;;;5085292;28;20052;-83
2022/07/05 12:32:57;;;;;;;5.07;1.40;;;21.30;99.90;;;;;;5068609;28;20501;-81
2022/07/05 12:35:40;;;;;;;6.18;1.52;;;21.40;99.90;;;;;;5061928;28;20052;-81
2022/07/05 12:38:18;;;;;;;4.28;1.20;;;21.50;99.90;;;;;;5036150;28;20366;-81
2022/07/05 12:40:45;;;;;;;;;;;21.60;99.90;;;;;;5083795;28;20028;-81
2022/07/05 12:43:13;;;;;;;3.10;1.38;;;21.60;99.90;;;;;;5088723;28;20292;-82
2022/07/05 12:45:41;;;;;;;4.45;1.30;;;21.50;99.90;;;;;;5070829;28;20050;-81
2022/07/05 12:48:08;;;;;;;4.65;1.58;;;21.40;99.90;;;;;;5050029;28;20328;-80
2022/07/05 12:50:45;;;;;;;6.13;1.60;;;21.30;99.90;;;;;;5048582;28;20059;-82
2022/07/05 12:58:54;;;;;;;4.28;1.20;;;21.10;99.90;;;;;;5048594;28;20129;-82
2022/07/05 13:01:20;;;;;;;4.07;1.30;;;20.90;99.90;;;;;;5047927;28;20041;-82
2022/07/05 13:04:16;;;;;;;7.00;1.40;;;20.70;99.90;;;;;;5049037;28;20110;-82
2022/07/05 13:06:45;;;;;;;3.53;1.48;;;20.60;99.90;;;;;;5074482;28;20140;-82